Time;durP1;ratioP1;P1;durP2;ratioP2;P2;SDS_P1;SDS_P2;PMS_P1;PMS_P2;Temp;Humidity;BMP_temperature;BMP_pressure;BME280_temperature;BME280_humidity;BME280_pressure;Samples;Min_cycle;Max_cycle;Signal;HPM_P1;HPM_P2
2023/05/13 00:01:41;;;;;;;0.47;0.47;;;16.10;86.50;;;;;;4405852;32;20086;-67
2023/05/13 00:04:07;;;;;;;0.47;0.47;;;16.10;86.70;;;;;;4409292;32;20100;-67
2023/05/13 00:06:34;;;;;;;0.98;0.68;;;16.10;86.20;;;;;;4395558;32;20132;-67
2023/05/13 00:09:00;;;;;;;2.92;1.00;;;16.00;86.50;;;;;;4393693;32;20424;-69
2023/05/13 00:11:26;;;;;;;0.65;0.55;;;16.00;86.70;;;;;;4395500;32;20155;-67
2023/05/13 00:13:52;;;;;;;0.50;0.50;;;15.90;87.00;;;;;;4405849;32;20194;-67
2023/05/13 00:16:17;;;;;;;2.17;0.60;;;15.80;87.60;;;;;;4394143;32;20160;-67
2023/05/13 00:18:42;;;;;;;0.77;0.77;;;15.90;87.30;;;;;;4410708;32;20066;-67
2023/05/13 00:21:08;;;;;;;0.60;0.60;;;15.90;87.20;;;;;;4411334;32;20431;-67
2023/05/13 00:23:34;;;;;;;0.82;0.82;;;15.80;87.40;;;;;;4409554;32;20077;-68
2023/05/13 00:26:00;;;;;;;0.50;0.50;;;15.80;88.00;;;;;;4408905;32;20078;-66
2023/05/13 00:28:26;;;;;;;0.90;0.62;;;15.70;88.20;;;;;;4411232;32;20106;-66
2023/05/13 00:30:51;;;;;;;0.60;0.57;;;15.70;88.20;;;;;;4406982;32;20136;-67
2023/05/13 00:33:17;;;;;;;1.55;1.10;;;15.70;88.00;;;;;;4411097;32;20547;-66
2023/05/13 00:35:42;;;;;;;0.50;0.50;;;15.70;88.70;;;;;;4407794;32;20085;-67
2023/05/13 00:38:08;;;;;;;0.80;0.60;;;15.60;88.80;;;;;;4394089;32;20469;-66
2023/05/13 00:40:38;;;;;;;4.65;0.82;;;15.70;88.80;;;;;;4390828;32;20128;-67
2023/05/13 00:43:04;;;;;;;0.60;0.60;;;15.70;89.10;;;;;;4395304;32;20089;-66
2023/05/13 00:45:30;;;;;;;0.85;0.77;;;15.60;88.70;;;;;;4409769;32;20541;-67
2023/05/13 00:47:56;;;;;;;3.03;0.95;;;15.70;88.70;;;;;;4409797;32;20065;-66
2023/05/13 00:50:21;;;;;;;0.30;0.30;;;15.70;89.20;;;;;;4408880;32;20107;-66
2023/05/13 00:52:49;;;;;;;1.17;0.57;;;15.60;89.30;;;;;;4409213;32;20077;-66
2023/05/13 00:55:14;;;;;;;0.45;0.45;;;15.50;89.40;;;;;;4409074;32;20552;-66
2023/05/13 00:57:40;;;;;;;6.18;1.40;;;15.50;89.20;;;;;;4409027;32;20089;-67
2023/05/13 01:00:06;;;;;;;2.47;0.65;;;15.40;89.60;;;;;;4408927;32;20074;-66
2023/05/13 01:02:44;;;;;;;0.50;0.50;;;15.40;89.90;;;;;;4392980;32;20078;-66
2023/05/13 01:05:48;;;;;;;0.57;0.57;;;15.40;89.80;;;;;;4406072;32;20136;-67
2023/05/13 01:08:23;;;;;;;0.60;0.60;;;15.50;90.00;;;;;;4396244;32;20073;-67
2023/05/13 01:10:54;;;;;;;0.45;0.40;;;15.40;90.00;;;;;;4395923;32;20433;-66
2023/05/13 01:13:22;;;;;;;;;;;15.40;90.10;;;;;;4396222;32;20069;-67
2023/05/13 01:16:10;;;;;;;0.60;0.60;;;15.30;90.30;;;;;;4409781;32;19973;-67
2023/05/13 01:18:39;;;;;;;0.60;0.60;;;15.30;90.40;;;;;;4409099;32;20420;-67
2023/05/13 01:21:05;;;;;;;0.50;0.50;;;15.40;90.70;;;;;;4410371;32;20086;-67
2023/05/13 01:23:31;;;;;;;0.30;0.30;;;15.40;90.40;;;;;;4406247;32;20152;-67
2023/05/13 01:25:56;;;;;;;0.50;0.50;;;15.30;90.20;;;;;;4391104;32;20580;-67
2023/05/13 01:28:22;;;;;;;0.73;0.68;;;15.30;90.60;;;;;;4394399;32;20074;-66
2023/05/13 01:30:48;;;;;;;0.50;0.50;;;15.30;90.70;;;;;;4408239;32;20081;-66
2023/05/13 01:33:15;;;;;;;0.50;0.50;;;15.20;91.00;;;;;;4405646;32;20268;-67
2023/05/13 01:35:42;;;;;;;1.17;0.90;;;15.10;91.00;;;;;;4409733;32;20082;-67
2023/05/13 01:38:07;;;;;;;0.50;0.50;;;15.10;90.60;;;;;;4405300;32;20097;-66
2023/05/13 01:40:33;;;;;;;0.50;0.50;;;15.20;90.60;;;;;;4409375;32;20188;-66
2023/05/13 01:42:59;;;;;;;1.15;0.85;;;15.20;90.90;;;;;;4407086;32;20097;-66
2023/05/13 01:45:28;;;;;;;0.60;0.60;;;15.10;90.90;;;;;;4406581;32;20182;-66
2023/05/13 01:47:53;;;;;;;1.67;0.60;;;15.10;91.10;;;;;;4406708;32;20078;-67
2023/05/13 01:50:18;;;;;;;0.60;0.60;;;15.10;91.00;;;;;;4405732;32;20106;-66
2023/05/13 01:52:44;;;;;;;2.40;0.62;;;15.00;90.90;;;;;;4404571;32;20125;-66
2023/05/13 01:55:09;;;;;;;3.12;1.23;;;15.10;91.30;;;;;;4407866;32;20801;-66
2023/05/13 01:57:35;;;;;;;0.50;0.50;;;15.00;91.40;;;;;;4406763;32;20074;-66
2023/05/13 02:00:01;;;;;;;0.68;0.68;;;14.90;91.50;;;;;;4409965;32;20144;-66
2023/05/13 02:02:26;;;;;;;1.73;0.60;;;14.90;91.50;;;;;;4408554;32;20699;-66
2023/05/13 02:04:51;;;;;;;1.20;1.10;;;14.90;91.90;;;;;;4409086;32;20082;-66
2023/05/13 02:07:17;;;;;;;0.47;0.37;;;14.90;92.40;;;;;;4406842;32;20089;-66
2023/05/13 02:09:42;;;;;;;0.40;0.40;;;14.80;92.00;;;;;;4405674;32;20841;-66
2023/05/13 02:12:08;;;;;;;0.70;0.70;;;14.80;92.10;;;;;;4407287;32;20195;-66
2023/05/13 02:14:33;;;;;;;0.50;0.50;;;14.80;91.50;;;;;;4405804;32;20090;-66
2023/05/13 02:16:59;;;;;;;0.75;0.73;;;14.80;92.00;;;;;;4405552;32;20074;-66
2023/05/13 02:19:24;;;;;;;1.85;1.17;;;14.60;91.90;;;;;;4409754;32;20068;-66
2023/05/13 02:21:50;;;;;;;1.00;0.95;;;14.60;92.20;;;;;;4413526;32;20641;-66
2023/05/13 02:24:15;;;;;;;0.40;0.40;;;14.70;92.30;;;;;;4413621;32;20731;-66
2023/05/13 02:26:41;;;;;;;0.47;0.47;;;14.70;92.10;;;;;;4410573;32;20148;-67
2023/05/13 02:29:07;;;;;;;0.45;0.45;;;14.60;91.90;;;;;;4411238;32;20089;-66
2023/05/13 02:31:32;;;;;;;1.30;0.88;;;14.60;92.40;;;;;;4397464;32;20086;-66
2023/05/13 02:33:58;;;;;;;0.52;0.50;;;14.60;92.10;;;;;;4409100;32;20093;-67
2023/05/13 02:36:23;;;;;;;0.60;0.60;;;14.70;92.70;;;;;;4407511;32;20304;-67
2023/05/13 02:38:49;;;;;;;0.60;0.60;;;14.70;92.00;;;;;;4411902;32;20165;-66
2023/05/13 02:41:14;;;;;;;0.40;0.40;;;14.70;92.00;;;;;;4410451;32;20585;-66
2023/05/13 02:43:40;;;;;;;0.68;0.60;;;14.60;92.00;;;;;;4410124;32;20077;-66
2023/05/13 02:46:05;;;;;;;0.50;0.50;;;14.60;92.40;;;;;;4411691;32;20188;-67
2023/05/13 02:48:31;;;;;;;9.55;0.85;;;14.60;92.50;;;;;;4410410;32;20077;-66
2023/05/13 02:50:56;;;;;;;0.45;0.45;;;14.60;92.00;;;;;;4411730;32;20436;-66
2023/05/13 02:53:22;;;;;;;3.67;1.00;;;14.60;92.30;;;;;;4407115;32;20156;-66
2023/05/13 02:55:48;;;;;;;3.30;0.70;;;14.60;92.40;;;;;;4413360;32;20085;-66
2023/05/13 02:58:13;;;;;;;2.15;1.05;;;14.60;92.10;;;;;;4412229;32;20101;-66
2023/05/13 03:00:39;;;;;;;1.65;1.08;;;14.60;92.10;;;;;;4411767;32;20533;-66
2023/05/13 03:03:05;;;;;;;0.57;0.57;;;14.50;92.20;;;;;;4413529;32;20065;-67
2023/05/13 03:05:30;;;;;;;1.15;0.93;;;14.50;92.10;;;;;;4409015;32;20500;-67
2023/05/13 03:07:56;;;;;;;8.27;1.25;;;14.50;92.20;;;;;;4408276;32;20078;-67
2023/05/13 03:10:22;;;;;;;0.50;0.50;;;14.50;92.30;;;;;;4408936;32;20228;-67
2023/05/13 03:12:47;;;;;;;0.43;0.43;;;14.50;92.20;;;;;;4396605;32;20508;-67
2023/05/13 03:15:13;;;;;;;0.70;0.70;;;14.50;92.30;;;;;;4411455;32;20128;-67
2023/05/13 03:17:39;;;;;;;0.43;0.43;;;14.40;92.40;;;;;;4414210;32;20104;-66
2023/05/13 03:20:05;;;;;;;0.65;0.62;;;14.40;92.50;;;;;;4411316;32;20074;-66
2023/05/13 03:22:31;;;;;;;0.57;0.57;;;14.30;92.60;;;;;;4412204;32;20196;-67
2023/05/13 03:24:57;;;;;;;3.72;2.25;;;14.30;92.70;;;;;;4410960;32;20541;-66
2023/05/13 03:27:22;;;;;;;3.05;1.98;;;14.30;92.80;;;;;;4411832;32;20089;-66
2023/05/13 03:29:48;;;;;;;0.80;0.80;;;14.30;92.80;;;;;;4412673;32;20070;-66
2023/05/13 03:32:13;;;;;;;3.10;1.75;;;14.20;92.70;;;;;;4409584;32;20074;-66
2023/05/13 03:34:39;;;;;;;0.40;0.40;;;14.10;93.00;;;;;;4412575;32;20132;-66
2023/05/13 03:37:04;;;;;;;0.88;0.88;;;14.20;93.00;;;;;;4410462;32;20080;-67
2023/05/13 03:39:30;;;;;;;0.40;0.40;;;14.10;93.00;;;;;;4407905;32;20074;-66
2023/05/13 03:41:55;;;;;;;2.08;0.70;;;14.00;93.30;;;;;;4409646;32;20090;-66
2023/05/13 03:44:21;;;;;;;1.85;0.85;;;14.00;93.20;;;;;;4409046;32;20415;-67
2023/05/13 03:46:46;;;;;;;0.75;0.75;;;14.00;93.30;;;;;;4412075;32;20077;-66
2023/05/13 03:49:12;;;;;;;1.12;1.02;;;14.00;93.50;;;;;;4410321;32;20069;-66
2023/05/13 03:51:37;;;;;;;0.75;0.75;;;14.00;93.30;;;;;;4409364;32;20632;-65
2023/05/13 03:54:03;;;;;;;1.37;1.27;;;13.90;93.40;;;;;;4410157;32;20118;-65
2023/05/13 03:56:28;;;;;;;0.37;0.37;;;14.00;93.50;;;;;;4409625;32;20057;-65
2023/05/13 03:58:54;;;;;;;0.52;0.52;;;13.90;93.50;;;;;;4407881;32;20102;-65
2023/05/13 04:01:20;;;;;;;1.10;0.82;;;14.00;93.30;;;;;;4409712;32;20093;-66
2023/05/13 04:03:46;;;;;;;2.15;1.08;;;13.90;93.50;;;;;;4412550;32;20081;-65
2023/05/13 04:06:13;;;;;;;1.42;1.02;;;14.00;93.50;;;;;;4410427;32;20068;-65
2023/05/13 04:08:38;;;;;;;2.97;1.05;;;13.90;93.50;;;;;;4409521;32;20122;-65
2023/05/13 04:11:04;;;;;;;0.40;0.40;;;13.80;93.90;;;;;;4412517;32;20529;-65
2023/05/13 04:13:33;;;;;;;0.40;0.40;;;13.80;93.90;;;;;;4410402;32;20549;-65
2023/05/13 04:15:59;;;;;;;0.60;0.55;;;13.80;94.30;;;;;;4396459;32;20159;-65
2023/05/13 04:18:24;;;;;;;2.15;0.70;;;13.90;94.00;;;;;;4409413;32;20541;-65
2023/05/13 04:20:50;;;;;;;0.60;0.60;;;13.90;94.10;;;;;;4410203;32;20097;-65
2023/05/13 04:23:15;;;;;;;0.88;0.88;;;13.90;94.10;;;;;;4411234;32;20109;-67
2023/05/13 04:25:50;;;;;;;0.52;0.52;;;13.90;93.80;;;;;;4409892;32;20082;-65
2023/05/13 04:28:16;;;;;;;0.60;0.60;;;13.90;93.80;;;;;;4413117;32;20078;-65
2023/05/13 04:30:42;;;;;;;0.52;0.50;;;14.00;93.90;;;;;;4410037;32;20073;-65
2023/05/13 04:33:07;;;;;;;0.60;0.60;;;13.90;93.70;;;;;;4412212;32;20075;-66
2023/05/13 04:35:33;;;;;;;1.08;0.98;;;13.90;93.70;;;;;;4408616;32;20148;-66
2023/05/13 04:37:58;;;;;;;1.35;0.88;;;13.90;93.70;;;;;;4409995;32;20073;-65
2023/05/13 04:40:24;;;;;;;0.40;0.40;;;14.00;93.50;;;;;;4410903;32;20481;-65
2023/05/13 04:42:53;;;;;;;9.93;1.08;;;13.90;93.30;;;;;;4415158;32;20061;-65
2023/05/13 04:45:19;;;;;;;1.40;0.85;;;13.90;93.40;;;;;;4396024;32;20513;-65
2023/05/13 04:47:45;;;;;;;1.02;0.93;;;14.00;93.50;;;;;;4412814;32;20116;-65
2023/05/13 04:50:10;;;;;;;0.50;0.50;;;14.00;93.20;;;;;;4409995;32;20234;-65
2023/05/13 04:52:36;;;;;;;0.62;0.62;;;14.10;93.50;;;;;;4412186;32;20107;-65
2023/05/13 04:55:03;;;;;;;0.80;0.70;;;14.10;93.50;;;;;;4413618;32;20139;-65
2023/05/13 04:57:28;;;;;;;0.60;0.60;;;14.20;93.00;;;;;;4411216;32;20081;-65
2023/05/13 04:59:53;;;;;;;0.57;0.57;;;14.20;93.30;;;;;;4411295;32;20073;-65
2023/05/13 05:02:19;;;;;;;0.68;0.62;;;14.20;93.20;;;;;;4414085;32;20489;-65
2023/05/13 05:04:45;;;;;;;0.50;0.50;;;14.20;93.10;;;;;;4408777;32;20121;-65
2023/05/13 05:07:10;;;;;;;3.87;1.37;;;14.30;93.10;;;;;;4408381;32;20101;-65
2023/05/13 05:09:35;;;;;;;0.30;0.30;;;14.30;92.90;;;;;;4409886;32;20093;-65
2023/05/13 05:12:01;;;;;;;1.65;0.88;;;14.40;92.80;;;;;;4407716;32;20093;-65
2023/05/13 05:14:26;;;;;;;0.73;0.52;;;14.40;92.50;;;;;;4407156;32;20469;-65
2023/05/13 05:16:52;;;;;;;4.68;1.58;;;14.50;92.40;;;;;;4407801;32;20070;-64
2023/05/13 05:19:22;;;;;;;0.70;0.70;;;14.60;92.30;;;;;;4411672;32;20410;-65
2023/05/13 05:21:49;;;;;;;2.75;1.10;;;14.60;92.20;;;;;;4411649;32;20077;-65
2023/05/13 05:24:15;;;;;;;2.17;1.37;;;14.70;92.70;;;;;;4408997;32;20418;-65
2023/05/13 05:26:40;;;;;;;0.55;0.55;;;14.80;92.80;;;;;;4410711;32;20065;-65
2023/05/13 05:29:06;;;;;;;0.60;0.60;;;14.80;92.40;;;;;;4408956;32;20082;-65
2023/05/13 05:31:31;;;;;;;3.55;1.37;;;14.90;92.90;;;;;;4410835;32;20098;-65
2023/05/13 05:33:57;;;;;;;20.37;3.60;;;14.90;92.00;;;;;;4412002;32;20064;-65
2023/05/13 05:36:24;;;;;;;3.10;1.70;;;15.00;92.20;;;;;;4410616;32;20082;-65
2023/05/13 05:38:50;;;;;;;0.60;0.60;;;15.00;91.90;;;;;;4410171;32;20102;-65
2023/05/13 05:41:15;;;;;;;0.50;0.50;;;15.10;91.50;;;;;;4409751;32;20092;-65
2023/05/13 05:43:40;;;;;;;0.43;0.43;;;15.20;91.30;;;;;;4408593;32;21546;-65
2023/05/13 05:46:06;;;;;;;1.00;0.93;;;15.30;91.00;;;;;;4411101;32;20576;-65
2023/05/13 05:48:32;;;;;;;0.47;0.47;;;15.40;90.30;;;;;;4410156;32;20097;-65
2023/05/13 05:50:57;;;;;;;1.73;0.98;;;15.40;90.40;;;;;;4412820;32;20121;-63
2023/05/13 05:53:24;;;;;;;0.60;0.60;;;15.50;90.00;;;;;;4408521;32;20155;-65
2023/05/13 05:55:49;;;;;;;0.50;0.50;;;15.60;90.10;;;;;;4411153;32;20069;-64
2023/05/13 05:58:15;;;;;;;2.35;0.60;;;15.70;89.10;;;;;;4412108;32;20389;-65
2023/05/13 06:00:41;;;;;;;3.20;1.12;;;15.90;90.30;;;;;;4411946;32;20085;-65
2023/05/13 06:03:06;;;;;;;0.50;0.50;;;16.00;89.50;;;;;;4414515;32;20140;-65
2023/05/13 06:05:32;;;;;;;1.12;0.80;;;16.00;87.30;;;;;;4412483;32;20735;-65
2023/05/13 06:07:57;;;;;;;0.50;0.50;;;16.10;88.10;;;;;;4414366;32;20141;-65
2023/05/13 06:10:23;;;;;;;0.62;0.52;;;16.10;88.30;;;;;;4413152;32;20069;-65
2023/05/13 06:12:50;;;;;;;0.50;0.50;;;16.20;88.00;;;;;;4407992;32;20146;-64
2023/05/13 06:15:15;;;;;;;0.40;0.40;;;16.30;86.40;;;;;;4413731;32;20061;-65
2023/05/13 06:17:41;;;;;;;0.40;0.40;;;16.20;86.20;;;;;;4410793;32;20118;-65
2023/05/13 06:20:06;;;;;;;0.98;0.80;;;16.30;88.80;;;;;;4411478;32;20099;-65
2023/05/13 06:22:32;;;;;;;0.65;0.60;;;16.40;86.00;;;;;;4412953;32;20161;-65
2023/05/13 06:24:58;;;;;;;0.60;0.60;;;16.40;86.20;;;;;;4412400;32;20101;-65
2023/05/13 06:27:24;;;;;;;3.12;1.48;;;16.40;86.80;;;;;;4413630;32;20065;-65
2023/05/13 06:29:50;;;;;;;0.60;0.60;;;16.50;86.30;;;;;;4416090;32;20109;-65
2023/05/13 06:32:16;;;;;;;0.32;0.32;;;16.60;85.70;;;;;;4411499;32;20094;-65
2023/05/13 06:34:45;;;;;;;0.85;0.70;;;16.60;86.10;;;;;;4409081;32;20053;-65
2023/05/13 06:37:13;;;;;;;0.30;0.30;;;16.70;85.60;;;;;;4411077;32;20097;-65
2023/05/13 06:39:39;;;;;;;0.40;0.40;;;16.80;85.00;;;;;;4412077;32;20101;-65
2023/05/13 06:42:06;;;;;;;0.52;0.52;;;16.90;84.70;;;;;;4411260;32;20131;-66
2023/05/13 06:44:31;;;;;;;0.75;0.60;;;17.00;84.20;;;;;;4412218;32;20085;-65
2023/05/13 06:46:57;;;;;;;1.48;0.65;;;17.00;83.50;;;;;;4414109;32;20082;-65
2023/05/13 06:49:23;;;;;;;2.28;1.40;;;17.10;83.10;;;;;;4415313;32;20102;-65
2023/05/13 06:51:50;;;;;;;0.50;0.50;;;17.20;82.20;;;;;;4414853;32;20109;-65
2023/05/13 06:54:15;;;;;;;2.78;1.12;;;17.20;82.50;;;;;;4397072;32;20081;-65
2023/05/13 06:56:41;;;;;;;1.37;0.65;;;17.30;81.60;;;;;;4400017;32;20148;-65
2023/05/13 06:59:06;;;;;;;0.32;0.32;;;17.40;80.20;;;;;;4414023;32;20083;-65
2023/05/13 07:01:32;;;;;;;0.40;0.40;;;17.50;78.40;;;;;;4410925;32;20135;-65
2023/05/13 07:03:57;;;;;;;0.70;0.70;;;17.60;76.60;;;;;;4413274;32;20124;-65
2023/05/13 07:06:23;;;;;;;0.62;0.62;;;17.70;77.70;;;;;;4413069;32;20576;-64
2023/05/13 07:08:48;;;;;;;0.30;0.30;;;17.70;78.10;;;;;;4413137;32;20078;-65
2023/05/13 07:11:14;;;;;;;0.40;0.30;;;17.70;76.70;;;;;;4410187;32;20062;-65
2023/05/13 07:13:40;;;;;;;4.20;0.55;;;17.80;75.50;;;;;;4410643;32;20074;-66
2023/05/13 07:16:06;;;;;;;0.37;0.37;;;17.80;75.40;;;;;;4411959;32;20144;-65
2023/05/13 07:18:31;;;;;;;0.80;0.80;;;17.90;76.30;;;;;;4411986;32;20159;-64
2023/05/13 07:20:57;;;;;;;0.82;0.82;;;18.10;77.10;;;;;;4412201;32;20097;-65
2023/05/13 07:23:22;;;;;;;12.07;2.28;;;18.20;76.90;;;;;;4410363;32;20085;-65
2023/05/13 07:25:50;;;;;;;0.35;0.35;;;18.30;75.10;;;;;;4411106;32;20140;-65
2023/05/13 07:28:15;;;;;;;0.57;0.57;;;18.40;75.10;;;;;;4411362;32;20069;-65
2023/05/13 07:30:41;;;;;;;0.40;0.40;;;18.50;73.50;;;;;;4410618;32;20084;-65
2023/05/13 07:33:06;;;;;;;0.50;0.50;;;18.60;71.70;;;;;;4410862;32;20797;-65
2023/05/13 07:35:32;;;;;;;1.25;0.70;;;18.70;71.80;;;;;;4411652;32;20086;-65
2023/05/13 07:37:58;;;;;;;0.55;0.52;;;18.80;71.30;;;;;;4410847;32;20075;-66
2023/05/13 07:40:24;;;;;;;0.80;0.73;;;18.90;69.00;;;;;;4409344;32;20081;-65
2023/05/13 07:42:49;;;;;;;0.60;0.60;;;19.00;71.00;;;;;;4410583;32;20422;-65
2023/05/13 07:45:15;;;;;;;6.25;2.03;;;19.00;68.70;;;;;;4411503;32;20090;-65
2023/05/13 07:47:40;;;;;;;1.25;0.82;;;19.20;67.50;;;;;;4409778;32;20090;-66
2023/05/13 07:50:07;;;;;;;0.80;0.68;;;19.30;68.10;;;;;;4410840;32;20430;-65
2023/05/13 07:52:32;;;;;;;0.47;0.47;;;19.50;66.20;;;;;;4409879;32;20791;-65
2023/05/13 07:54:58;;;;;;;0.37;0.37;;;19.40;66.40;;;;;;4413227;32;20098;-65
2023/05/13 07:57:23;;;;;;;2.53;1.17;;;19.50;67.80;;;;;;4413072;32;20552;-65
2023/05/13 07:59:48;;;;;;;0.70;0.60;;;19.40;65.60;;;;;;4411149;32;20093;-65
2023/05/13 08:02:14;;;;;;;0.30;0.30;;;19.20;66.90;;;;;;4407846;32;20533;-65
2023/05/13 08:04:41;;;;;;;0.40;0.40;;;19.30;68.10;;;;;;4406157;32;20066;-65
2023/05/13 08:07:06;;;;;;;0.32;0.32;;;19.40;68.20;;;;;;4406079;32;20066;-65
2023/05/13 08:09:32;;;;;;;0.45;0.45;;;19.50;68.30;;;;;;4407706;32;20128;-65
2023/05/13 08:11:58;;;;;;;1.77;1.08;;;19.60;68.80;;;;;;4409157;32;20090;-65
2023/05/13 08:14:24;;;;;;;0.40;0.40;;;19.70;68.50;;;;;;4411299;32;20488;-65
2023/05/13 08:16:54;;;;;;;10.77;0.60;;;19.80;68.70;;;;;;4404127;32;20256;-66
2023/05/13 08:19:19;;;;;;;0.30;0.30;;;19.80;69.00;;;;;;4400804;32;20140;-65
2023/05/13 08:21:45;;;;;;;0.40;0.40;;;19.80;67.80;;;;;;4406660;32;20085;-63
2023/05/13 08:24:11;;;;;;;0.55;0.55;;;19.90;68.70;;;;;;4399204;32;20115;-65
2023/05/13 08:26:36;;;;;;;0.40;0.40;;;20.10;70.30;;;;;;4400977;32;20082;-65
2023/05/13 08:29:03;;;;;;;1.30;1.02;;;20.20;68.10;;;;;;4404139;32;20164;-63
2023/05/13 08:31:29;;;;;;;0.30;0.30;;;20.30;68.20;;;;;;4401816;32;20105;-64
2023/05/13 08:33:54;;;;;;;0.30;0.30;;;20.40;68.30;;;;;;4402141;32;21292;-64
2023/05/13 08:36:21;;;;;;;0.47;0.47;;;20.40;67.10;;;;;;4406242;32;20096;-65
2023/05/13 08:38:47;;;;;;;0.60;0.60;;;20.30;66.70;;;;;;4404162;32;20510;-64
2023/05/13 08:41:13;;;;;;;0.55;0.43;;;20.20;68.40;;;;;;4401922;32;20082;-63
2023/05/13 08:43:43;;;;;;;0.37;0.37;;;20.10;66.90;;;;;;4403222;32;20085;-64
2023/05/13 08:46:10;;;;;;;0.45;0.45;;;20.10;68.20;;;;;;4389620;32;20089;-65
2023/05/13 08:48:37;;;;;;;1.17;0.73;;;20.30;68.80;;;;;;4403113;32;20121;-64
2023/05/13 08:51:05;;;;;;;0.55;0.52;;;20.30;68.90;;;;;;4404082;32;20085;-64
2023/05/13 08:53:33;;;;;;;0.55;0.55;;;20.50;71.50;;;;;;4400635;32;20065;-64
2023/05/13 08:55:59;;;;;;;0.95;0.85;;;20.70;70.50;;;;;;4403778;32;20556;-64
2023/05/13 08:58:26;;;;;;;0.98;0.77;;;20.80;69.70;;;;;;4404524;32;20074;-64
2023/05/13 09:00:52;;;;;;;1.55;1.17;;;20.80;69.30;;;;;;4405550;32;20062;-64
2023/05/13 09:03:18;;;;;;;0.50;0.50;;;20.80;68.20;;;;;;4402581;32;20106;-64
2023/05/13 09:05:45;;;;;;;0.40;0.40;;;20.90;68.80;;;;;;4405145;32;20065;-64
2023/05/13 09:08:11;;;;;;;0.40;0.40;;;20.80;68.80;;;;;;4405280;32;20151;-64
2023/05/13 09:10:37;;;;;;;0.75;0.73;;;20.90;68.20;;;;;;4403005;32;20086;-63
2023/05/13 09:13:03;;;;;;;0.40;0.40;;;20.90;68.60;;;;;;4408388;32;20065;-64
2023/05/13 09:15:31;;;;;;;0.32;0.32;;;21.20;68.50;;;;;;4409185;32;20082;-64
2023/05/13 09:18:01;;;;;;;9.43;2.45;;;21.40;69.50;;;;;;4413310;32;20097;-65
2023/05/13 09:20:28;;;;;;;0.73;0.70;;;21.30;66.50;;;;;;4413054;32;20097;-64
2023/05/13 09:22:57;;;;;;;3.35;0.57;;;21.30;66.80;;;;;;4409760;32;20085;-64
2023/05/13 09:25:23;;;;;;;0.37;0.37;;;21.30;67.40;;;;;;4410999;32;20432;-64
2023/05/13 09:27:52;;;;;;;0.75;0.75;;;21.20;65.50;;;;;;4415686;32;20521;-64
2023/05/13 09:30:19;;;;;;;0.35;0.35;;;21.30;66.20;;;;;;4415553;32;20545;-65
2023/05/13 09:33:05;;;;;;;0.30;0.30;;;21.40;65.90;;;;;;4412183;32;20069;-64
2023/05/13 09:35:31;;;;;;;0.20;0.20;;;21.30;65.30;;;;;;4413856;32;20081;-65
2023/05/13 09:37:58;;;;;;;1.98;1.37;;;21.50;63.80;;;;;;4415013;32;20089;-64
2023/05/13 09:40:24;;;;;;;2.97;1.12;;;21.60;62.90;;;;;;4412442;32;20062;-63
2023/05/13 09:42:50;;;;;;;2.80;0.88;;;21.70;60.60;;;;;;4412616;32;20102;-63
2023/05/13 09:45:16;;;;;;;0.45;0.45;;;21.60;60.10;;;;;;4413762;32;20076;-64
2023/05/13 09:47:42;;;;;;;0.43;0.43;;;21.70;61.70;;;;;;4415138;32;20082;-63
2023/05/13 09:50:10;;;;;;;0.77;0.57;;;21.90;60.90;;;;;;4414497;32;20181;-63
2023/05/13 09:52:37;;;;;;;0.65;0.65;;;22.20;59.80;;;;;;4413061;32;20097;-64
2023/05/13 09:55:07;;;;;;;3.80;0.93;;;22.30;57.40;;;;;;4414148;32;20116;-63
2023/05/13 09:57:33;;;;;;;0.30;0.30;;;22.30;57.90;;;;;;4412319;32;20089;-64
2023/05/13 10:00:04;;;;;;;1.52;0.68;;;22.50;57.80;;;;;;4411861;32;20066;-64
2023/05/13 10:02:30;;;;;;;2.20;1.10;;;22.50;58.70;;;;;;4409267;32;20101;-65
2023/05/13 10:04:55;;;;;;;0.43;0.43;;;22.50;58.50;;;;;;4413013;32;20069;-64
2023/05/13 10:07:24;;;;;;;1.27;0.95;;;22.60;56.60;;;;;;4413519;32;20069;-64
2023/05/13 10:09:53;;;;;;;0.28;0.28;;;22.60;55.70;;;;;;4417806;32;20069;-64
2023/05/13 10:12:22;;;;;;;0.80;0.75;;;22.90;57.90;;;;;;4415885;32;20786;-64
2023/05/13 10:14:50;;;;;;;0.82;0.80;;;23.10;56.40;;;;;;4412412;32;20069;-64
2023/05/13 10:17:21;;;;;;;0.37;0.37;;;23.00;55.50;;;;;;4410382;32;20093;-64
2023/05/13 10:19:51;;;;;;;0.52;0.52;;;23.30;55.80;;;;;;4412768;32;20081;-64
2023/05/13 10:22:28;;;;;;;0.30;0.30;;;23.40;55.10;;;;;;4415000;32;20075;-64
2023/05/13 10:24:56;;;;;;;0.52;0.52;;;23.50;55.10;;;;;;4410815;32;20086;-64
2023/05/13 10:27:27;;;;;;;1.05;0.60;;;23.70;56.50;;;;;;4412231;32;20069;-64
2023/05/13 10:29:53;;;;;;;0.30;0.30;;;24.30;56.10;;;;;;4413196;32;20072;-63
2023/05/13 10:32:21;;;;;;;0.20;0.20;;;24.20;52.80;;;;;;4411201;32;20101;-63
2023/05/13 10:34:47;;;;;;;0.75;0.73;;;23.90;52.70;;;;;;4409599;32;20493;-64
2023/05/13 10:37:30;;;;;;;0.47;0.40;;;23.60;53.50;;;;;;4408265;32;20073;-63
2023/05/13 10:40:36;;;;;;;0.30;0.30;;;24.00;55.60;;;;;;4397467;32;20078;-63
2023/05/13 10:43:13;;;;;;;0.40;0.40;;;24.20;52.90;;;;;;4392571;32;20529;-62
2023/05/13 10:45:43;;;;;;;1.02;0.62;;;24.20;51.50;;;;;;4410658;32;20097;-64
2023/05/13 10:48:11;;;;;;;1.30;1.12;;;24.40;51.50;;;;;;4412960;32;20079;-64
2023/05/13 10:50:37;;;;;;;1.27;1.17;;;24.70;51.20;;;;;;4413246;32;20087;-65
2023/05/13 10:53:09;;;;;;;1.00;0.80;;;24.60;50.90;;;;;;4411379;32;20080;-65
2023/05/13 10:55:56;;;;;;;0.37;0.37;;;24.60;51.40;;;;;;4397405;32;20097;-63
2023/05/13 10:58:38;;;;;;;0.50;0.50;;;25.20;52.50;;;;;;4399067;32;20101;-62
2023/05/13 11:01:28;;;;;;;1.80;0.73;;;25.50;50.10;;;;;;4410417;32;20097;-64
2023/05/13 11:03:56;;;;;;;0.22;0.22;;;25.70;49.60;;;;;;4385575;32;20599;-63
2023/05/13 11:06:27;;;;;;;0.55;0.55;;;25.60;48.60;;;;;;4408833;32;20064;-64
2023/05/13 11:08:53;;;;;;;0.30;0.30;;;25.40;49.00;;;;;;4410450;32;20452;-65
2023/05/13 11:11:22;;;;;;;0.28;0.25;;;25.20;49.10;;;;;;4408461;32;20105;-63
2023/05/13 11:14:04;;;;;;;0.47;0.47;;;25.40;49.60;;;;;;4406287;32;20521;-63
2023/05/13 11:16:30;;;;;;;0.43;0.43;;;25.70;49.60;;;;;;4406926;32;20089;-61
2023/05/13 11:18:55;;;;;;;0.20;0.20;;;25.80;50.20;;;;;;4383090;32;20085;-63
2023/05/13 11:21:40;;;;;;;0.47;0.47;;;26.10;48.30;;;;;;4412120;32;20106;-62
2023/05/13 11:24:06;;;;;;;0.30;0.30;;;25.90;48.20;;;;;;4407638;32;20093;-62
2023/05/13 11:26:51;;;;;;;0.28;0.28;;;26.30;49.40;;;;;;4395084;32;20086;-62
2023/05/13 11:29:34;;;;;;;0.20;0.20;;;26.90;48.90;;;;;;4395805;32;20097;-64
2023/05/13 11:32:02;;;;;;;0.20;0.20;;;26.90;50.10;;;;;;4408617;32;20090;-61
2023/05/13 11:34:28;;;;;;;1.45;1.10;;;26.80;48.10;;;;;;4409441;32;20439;-65
2023/05/13 11:37:04;;;;;;;0.20;0.20;;;27.00;49.80;;;;;;4395705;32;20094;-63
2023/05/13 11:39:31;;;;;;;0.15;0.15;;;26.90;48.30;;;;;;4410726;32;20512;-65
2023/05/13 11:42:00;;;;;;;1.55;0.40;;;26.50;46.40;;;;;;4395605;32;20093;-63
2023/05/13 11:44:26;;;;;;;0.40;0.40;;;26.70;47.30;;;;;;4404450;32;88383;-66
2023/05/13 11:47:00;;;;;;;0.25;0.25;;;27.00;46.70;;;;;;4407551;32;20078;-60
2023/05/13 11:49:37;;;;;;;0.20;0.20;;;27.20;47.30;;;;;;4410823;32;20140;-62
2023/05/13 11:52:05;;;;;;;0.30;0.30;;;27.30;47.30;;;;;;4396063;32;20081;-67
2023/05/13 11:54:31;;;;;;;0.65;0.50;;;27.70;47.30;;;;;;4397561;32;20110;-62
2023/05/13 11:56:56;;;;;;;0.00;0.00;;;27.70;45.70;;;;;;4410903;32;20050;-64
2023/05/13 11:59:22;;;;;;;0.10;0.10;;;27.80;47.30;;;;;;4397861;32;20788;-63
2023/05/13 12:02:01;;;;;;;1.35;0.37;;;27.70;46.80;;;;;;4408865;32;20303;-64
2023/05/13 12:04:28;;;;;;;0.25;0.25;;;26.80;46.30;;;;;;4407436;32;20090;-63
2023/05/13 12:06:54;;;;;;;0.20;0.20;;;26.80;46.20;;;;;;4397558;32;20505;-63
2023/05/13 12:09:22;;;;;;;0.15;0.15;;;27.20;46.60;;;;;;4407531;32;20112;-62
2023/05/13 12:11:51;;;;;;;0.20;0.20;;;27.60;45.70;;;;;;4406957;32;20543;-63
2023/05/13 12:14:18;;;;;;;2.53;0.65;;;28.00;44.80;;;;;;4395124;32;20147;-65
2023/05/13 12:16:43;;;;;;;0.10;0.10;;;28.60;45.80;;;;;;4410408;32;20093;-63
2023/05/13 12:19:10;;;;;;;1.85;0.30;;;28.60;43.90;;;;;;4407907;32;20082;-64
2023/05/13 12:21:37;;;;;;;0.20;0.20;;;28.70;45.00;;;;;;4409920;32;20435;-64
2023/05/13 12:24:16;;;;;;;0.47;0.37;;;29.10;46.10;;;;;;4406039;32;20073;-62
2023/05/13 12:26:41;;;;;;;0.40;0.28;;;28.80;44.60;;;;;;4393898;32;20074;-62
2023/05/13 12:29:07;;;;;;;1.25;0.55;;;28.80;45.70;;;;;;4410627;32;20167;-62
2023/05/13 12:31:32;;;;;;;2.60;0.88;;;29.10;44.10;;;;;;4407704;32;20502;-64
2023/05/13 12:33:58;;;;;;;0.47;0.45;;;29.60;45.40;;;;;;4408857;32;20081;-65
2023/05/13 12:36:32;;;;;;;0.40;0.30;;;29.50;43.70;;;;;;4408203;32;20078;-63
2023/05/13 12:39:01;;;;;;;0.20;0.20;;;29.20;43.80;;;;;;4410775;32;20101;-61
2023/05/13 12:41:34;;;;;;;0.05;0.05;;;29.40;43.50;;;;;;4408708;32;20833;-63
2023/05/13 12:44:02;;;;;;;0.20;0.20;;;29.60;43.60;;;;;;4391301;32;20144;-63
2023/05/13 12:46:28;;;;;;;5.93;1.27;;;29.60;44.30;;;;;;4403279;32;20093;-65
2023/05/13 12:48:56;;;;;;;0.50;0.43;;;29.40;44.30;;;;;;4391136;32;20592;-61